createdAt,value
2019-04-10T00:00:10.556Z,9.70
2019-04-10T00:02:39.768Z,9.70
2019-04-10T00:05:08.401Z,9.70
2019-04-10T00:07:37.504Z,9.70
2019-04-10T00:10:07.655Z,9.70
2019-04-10T00:12:36.219Z,9.70
2019-04-10T00:15:05.466Z,9.60
2019-04-10T00:17:34.052Z,9.70
2019-04-10T00:20:02.557Z,9.60
2019-04-10T00:22:30.965Z,9.60
2019-04-10T00:25:00.132Z,9.60
2019-04-10T00:27:28.664Z,9.60
2019-04-10T00:29:57.065Z,9.60
2019-04-10T00:32:25.474Z,9.60
2019-04-10T00:34:54.082Z,9.60
2019-04-10T00:37:28.150Z,9.50
2019-04-10T00:39:53.016Z,9.50
2019-04-10T00:42:21.489Z,9.50
2019-04-10T00:44:50.080Z,9.50
2019-04-10T00:47:19.122Z,9.50
2019-04-10T00:49:48.235Z,9.40
2019-04-10T00:52:16.757Z,9.40
2019-04-10T00:54:45.154Z,9.40
2019-04-10T00:57:13.564Z,9.40
2019-04-10T00:59:42.211Z,9.40
2019-04-10T01:02:10.713Z,9.30
2019-04-10T01:04:39.112Z,9.30
2019-04-10T01:07:08.394Z,9.30
2019-04-10T03:37:16.013Z,8.00
2019-04-10T03:39:44.731Z,7.90
2019-04-10T03:42:13.192Z,7.80
2019-04-10T03:44:41.598Z,7.70
2019-04-10T03:47:11.180Z,7.70
2019-04-10T03:49:40.126Z,7.80
2019-04-10T03:52:09.963Z,7.80
2019-04-10T03:54:39.009Z,7.80
2019-04-10T03:57:07.566Z,7.90
2019-04-10T03:59:36.317Z,7.90
2019-04-10T04:02:07.058Z,7.90
2019-04-10T04:04:35.789Z,7.90
2019-04-10T04:07:04.978Z,7.90
2019-04-10T04:09:33.625Z,8.00
2019-04-10T04:12:02.353Z,7.90
2019-04-10T04:14:30.908Z,8.00
2019-04-10T04:16:59.760Z,8.00
2019-04-10T04:19:28.317Z,8.00
2019-04-10T04:21:56.822Z,8.00
2019-04-10T04:24:26.526Z,8.00
2019-04-10T04:26:55.142Z,8.00
2019-04-10T04:29:24.507Z,7.90
2019-04-10T04:31:53.137Z,8.00
2019-04-10T04:34:21.538Z,8.00
2019-04-10T04:36:50.014Z,8.00
2019-04-10T04:39:24.970Z,8.00
2019-04-10T04:41:48.566Z,7.90
2019-04-10T04:44:18.007Z,7.90
2019-04-10T04:46:46.504Z,7.90
2019-04-10T04:49:15.729Z,7.90
2019-04-10T04:51:44.208Z,7.90
2019-04-10T04:54:12.958Z,7.90
2019-04-10T04:56:42.266Z,7.90
2019-04-10T04:59:10.795Z,7.90
2019-04-10T05:01:40.329Z,7.90
2019-04-10T05:04:09.072Z,7.80
2019-04-10T05:06:37.589Z,7.90
2019-04-10T05:09:07.128Z,7.80
2019-04-10T05:11:36.405Z,7.80
2019-04-10T05:14:04.984Z,7.80
2019-04-10T05:16:33.394Z,7.80
2019-04-10T05:19:02.132Z,7.80
2019-04-10T05:21:30.625Z,7.80
2019-04-10T05:23:59.690Z,7.80
2019-04-10T05:26:28.122Z,7.80
2019-04-10T05:28:57.085Z,7.80
2019-04-10T05:31:25.673Z,7.80
2019-04-10T05:33:54.082Z,7.80
2019-04-10T05:36:23.515Z,7.80
2019-04-10T05:38:52.547Z,7.90
2019-04-10T05:41:21.855Z,7.90
2019-04-10T05:43:51.269Z,7.80
2019-04-10T05:46:21.516Z,7.90
2019-04-10T05:48:50.521Z,7.90
2019-04-10T05:51:19.207Z,8.00
2019-04-10T05:53:49.895Z,8.10
2019-04-10T05:56:19.067Z,8.20
2019-04-10T05:58:49.019Z,8.10
2019-04-10T06:01:29.978Z,8.10
2019-04-10T06:03:49.085Z,8.10
2019-04-10T06:06:17.693Z,8.20
2019-04-10T06:08:47.044Z,8.20
2019-04-10T06:11:15.610Z,8.20
2019-04-10T06:13:45.065Z,8.30
2019-04-10T06:16:13.705Z,8.30
2019-04-10T06:18:43.047Z,8.40
2019-04-10T06:21:12.549Z,8.40
2019-04-10T06:23:41.375Z,8.40
2019-04-10T06:26:10.249Z,8.50
2019-04-10T06:28:38.766Z,8.40
2019-04-10T06:31:08.273Z,8.40
2019-04-10T06:33:37.037Z,8.50
2019-04-10T06:36:05.466Z,8.50
2019-04-10T06:38:35.058Z,8.60
2019-04-10T06:41:03.613Z,8.60
2019-04-10T06:43:32.957Z,8.60
2019-04-10T06:46:01.613Z,8.80
2019-04-10T06:48:30.362Z,8.80
2019-04-10T06:50:59.766Z,8.80
2019-04-10T06:53:28.939Z,8.70
2019-04-10T06:55:57.585Z,8.90
2019-04-10T06:58:25.997Z,8.90
2019-04-10T07:00:55.252Z,8.90
2019-04-10T07:03:33.895Z,9.00
2019-04-10T07:06:06.026Z,9.10
2019-04-10T07:08:27.341Z,9.40
2019-04-10T07:11:03.318Z,9.40
2019-04-10T07:13:26.177Z,9.30
2019-04-10T07:15:58.146Z,9.50
2019-04-10T07:18:26.318Z,9.50
2019-04-10T07:20:58.354Z,9.70
2019-04-10T07:23:28.764Z,10.10
2019-04-10T07:25:56.136Z,10.10
2019-04-10T07:28:25.683Z,10.20
2019-04-10T07:30:56.829Z,10.40
2019-04-10T07:33:24.572Z,10.40
2019-04-10T07:35:55.955Z,10.50
2019-04-10T07:38:23.221Z,10.50
2019-04-10T07:40:51.727Z,10.50
2019-04-10T07:43:24.681Z,10.60
2019-04-10T07:45:50.278Z,10.60
2019-04-10T07:48:18.691Z,10.70
2019-04-10T07:50:48.295Z,10.50
2019-04-10T07:53:17.005Z,10.60
2019-04-10T07:55:57.501Z,10.50
2019-04-10T07:58:15.620Z,10.80
2019-04-10T08:00:44.877Z,10.70
2019-04-10T08:03:14.580Z,10.80
2019-04-10T08:05:44.010Z,10.50
2019-04-10T08:08:12.726Z,10.80
2019-04-10T08:10:42.689Z,10.80
2019-04-10T08:13:12.171Z,10.80
2019-04-10T08:15:41.236Z,10.60
2019-04-10T08:18:10.031Z,10.50
2019-04-10T08:20:38.554Z,10.50
2019-04-10T08:23:07.917Z,10.60
2019-04-10T08:25:37.127Z,10.70
2019-04-10T08:28:05.646Z,10.80
2019-04-10T08:30:34.271Z,11.10
2019-04-10T08:33:04.332Z,10.80
2019-04-10T08:35:33.582Z,10.90
2019-04-10T08:38:03.268Z,11.10
2019-04-10T08:40:32.148Z,11.50
2019-04-10T08:43:01.770Z,11.80
2019-04-10T08:45:40.559Z,12.10
2019-04-10T08:48:01.448Z,12.60
2019-04-10T08:50:30.227Z,12.90
2019-04-10T08:52:59.902Z,13.00
2019-04-10T08:55:28.551Z,13.20
2019-04-10T08:57:56.961Z,13.50
2019-04-10T09:00:25.386Z,14.50
2019-04-10T09:02:54.755Z,15.20
2019-04-10T09:05:23.834Z,16.20
2019-04-10T09:07:52.692Z,18.40
2019-04-10T09:10:21.273Z,19.30
2019-04-10T09:12:49.770Z,19.50
2019-04-10T09:15:18.277Z,20.50
2019-04-10T09:17:47.223Z,22.00
2019-04-10T09:20:16.346Z,23.20
2019-04-10T09:23:10.624Z,24.10
2019-04-10T09:25:16.118Z,23.20
2019-04-10T09:27:46.181Z,22.50
2019-04-10T09:30:14.910Z,21.30
2019-04-10T09:32:44.331Z,22.00
2019-04-10T09:35:14.052Z,23.00
2019-04-10T09:37:42.585Z,23.30
2019-04-10T09:40:11.977Z,24.10
2019-04-10T09:42:40.418Z,24.30
2019-04-10T09:45:09.378Z,24.60
2019-04-10T09:47:37.778Z,25.20
2019-04-10T09:50:07.799Z,24.10
2019-04-10T09:52:36.230Z,24.90
2019-04-10T09:55:07.521Z,24.60
2019-04-10T09:57:36.711Z,22.30
2019-04-10T10:00:08.010Z,23.10
2019-04-10T10:02:36.491Z,23.80
2019-04-10T10:05:06.429Z,23.80
2019-04-10T10:07:34.906Z,23.10
2019-04-10T10:10:04.525Z,22.90
2019-04-10T10:12:32.942Z,22.20
2019-04-10T10:15:02.532Z,22.90
2019-04-10T10:17:31.063Z,22.90
2019-04-10T10:19:59.589Z,22.70
2019-04-10T10:22:28.097Z,24.20
2019-04-10T10:24:57.732Z,22.60
2019-04-10T10:27:26.787Z,23.40
2019-04-10T10:29:56.085Z,23.90
2019-04-10T10:32:24.853Z,23.70
2019-04-10T10:34:54.565Z,23.70
2019-04-10T10:37:24.111Z,23.60
2019-04-10T10:39:52.854Z,23.40
2019-04-10T10:42:21.386Z,22.50
2019-04-10T10:44:50.061Z,22.30
2019-04-10T10:47:18.521Z,23.10
2019-04-10T10:49:46.942Z,22.50
2019-04-10T10:52:15.408Z,21.50
2019-04-10T10:54:43.850Z,21.20
2019-04-10T10:57:13.202Z,22.30
2019-04-10T10:59:41.904Z,22.70
2019-04-10T11:02:10.653Z,21.90
2019-04-10T11:04:39.857Z,21.90
2019-04-10T11:07:08.680Z,22.40
2019-04-10T11:09:37.650Z,21.90
2019-04-10T11:12:06.668Z,21.90
2019-04-10T11:14:35.455Z,22.70
2019-04-10T11:17:05.295Z,22.70
2019-04-10T11:19:35.385Z,21.20
2019-04-10T11:22:05.675Z,21.50
2019-04-10T11:24:35.582Z,21.00
2019-04-10T11:27:06.319Z,20.80
2019-04-10T11:29:35.167Z,20.90
2019-04-10T11:32:04.217Z,21.10
2019-04-10T11:34:34.417Z,20.70
2019-04-10T11:37:21.572Z,20.60
2019-04-10T11:39:35.361Z,20.10
2019-04-10T11:42:04.151Z,20.80
2019-04-10T11:44:33.610Z,21.30
2019-04-10T11:47:05.562Z,20.70
2019-04-10T11:49:34.024Z,21.40
2019-04-10T11:52:04.019Z,21.50
2019-04-10T11:54:37.603Z,19.60
2019-04-10T11:57:06.312Z,20.30
2019-04-10T11:59:35.973Z,20.10
2019-04-10T12:02:06.484Z,20.40
2019-04-10T12:07:05.977Z,19.70
2019-04-10T12:12:05.687Z,20.00
2019-04-10T12:14:35.218Z,19.60
2019-04-10T12:17:03.992Z,19.90
2019-04-10T12:19:32.416Z,19.80
2019-04-10T12:22:00.888Z,18.80
2019-04-10T12:24:30.054Z,19.70
2019-04-10T12:26:58.543Z,20.20
2019-04-10T12:29:27.007Z,20.50
2019-04-10T12:31:56.552Z,20.30
2019-04-10T12:34:25.016Z,20.40
2019-04-10T12:36:53.459Z,20.50
2019-04-10T12:39:22.670Z,20.30
2019-04-10T12:41:52.005Z,20.40
2019-04-10T12:44:21.331Z,20.40
2019-04-10T12:46:49.830Z,20.60
2019-04-10T12:49:19.174Z,20.80
2019-04-10T12:51:47.931Z,20.70
2019-04-10T12:54:17.377Z,20.00
2019-04-10T12:56:46.370Z,19.50
2019-04-10T12:59:15.191Z,19.60
2019-04-10T13:01:44.860Z,20.20
2019-04-10T13:04:13.800Z,20.30
2019-04-10T13:06:42.349Z,20.30
2019-04-10T13:09:12.955Z,19.90
2019-04-10T13:11:42.732Z,19.80
2019-04-10T13:14:11.267Z,19.20
2019-04-10T13:16:40.345Z,19.20
2019-04-10T13:19:09.781Z,18.80
2019-04-10T13:21:38.872Z,19.20
2019-04-10T13:24:07.290Z,18.90
2019-04-10T13:26:35.697Z,18.70
2019-04-10T13:29:04.197Z,17.80
2019-04-10T13:31:33.222Z,17.80
2019-04-10T13:34:02.761Z,18.00
2019-04-10T13:36:31.449Z,17.70
2019-04-10T13:39:00.245Z,17.80
2019-04-10T13:41:28.882Z,17.60
2019-04-10T13:43:58.161Z,18.20
2019-04-10T13:46:26.874Z,18.30
2019-04-10T13:48:55.583Z,18.60
2019-04-10T13:51:24.164Z,18.60
2019-04-10T13:53:52.591Z,18.60
2019-04-10T13:56:21.126Z,18.80
2019-04-10T13:58:50.764Z,19.30
2019-04-10T14:01:21.002Z,19.20
2019-04-10T14:03:50.361Z,18.70
2019-04-10T14:06:19.227Z,17.90
2019-04-10T14:09:04.456Z,18.10
2019-04-10T14:11:19.292Z,18.10
2019-04-10T14:13:48.368Z,18.10
2019-04-10T14:16:16.991Z,17.30
2019-04-10T14:18:45.883Z,17.30
2019-04-10T14:21:16.049Z,17.60
2019-04-10T14:23:45.249Z,17.90
2019-04-10T14:26:16.945Z,18.30
2019-04-10T14:28:46.175Z,18.70
2019-04-10T14:31:16.236Z,18.80
2019-04-10T14:33:45.093Z,18.60
2019-04-10T14:36:13.883Z,18.20
2019-04-10T14:38:43.939Z,17.80
2019-04-10T14:41:12.414Z,17.30
2019-04-10T14:43:42.671Z,17.30
2019-04-10T14:46:12.388Z,17.50
2019-04-10T14:48:40.940Z,17.60
2019-04-10T14:51:10.258Z,17.30
2019-04-10T14:53:39.403Z,17.40
2019-04-10T14:56:08.306Z,17.30
2019-04-10T14:58:37.003Z,16.80
2019-04-10T15:01:08.417Z,16.80
2019-04-10T15:03:36.180Z,16.40
2019-04-10T15:06:05.069Z,16.30
2019-04-10T15:08:33.479Z,16.30
2019-04-10T15:11:02.412Z,16.50
2019-04-10T15:13:31.844Z,16.50
2019-04-10T15:16:00.830Z,15.90
2019-04-10T15:18:30.927Z,15.50
2019-04-10T15:21:00.629Z,15.30
2019-04-10T15:23:29.590Z,15.30
2019-04-10T15:25:58.138Z,15.50
2019-04-10T15:28:27.452Z,15.20
2019-04-10T15:30:57.131Z,15.20
2019-04-10T15:33:26.699Z,15.30
2019-04-10T15:35:55.521Z,15.00
2019-04-10T15:38:24.133Z,14.90
2019-04-10T15:40:52.897Z,14.60
2019-04-10T15:43:23.574Z,14.70
2019-04-10T15:45:52.532Z,14.60
2019-04-10T15:48:21.146Z,14.60
2019-04-10T15:50:49.852Z,14.70
2019-04-10T15:53:18.562Z,14.60
2019-04-10T15:55:47.608Z,14.70
2019-04-10T15:58:17.208Z,14.60
2019-04-10T16:00:45.802Z,14.70
2019-04-10T16:03:15.366Z,14.70
2019-04-10T16:05:44.085Z,14.60
2019-04-10T16:08:14.215Z,14.50
2019-04-10T16:10:46.217Z,14.30
2019-04-10T16:13:28.276Z,14.10
2019-04-10T16:15:58.896Z,14.20
2019-04-10T16:18:30.491Z,13.90
2019-04-10T16:20:59.982Z,13.90
2019-04-10T16:23:35.663Z,14.10
2019-04-10T16:26:04.929Z,14.00
2019-04-10T16:28:33.599Z,13.90
2019-04-10T16:31:03.302Z,13.80
2019-04-10T16:33:31.840Z,13.70
2019-04-10T16:36:00.939Z,13.70
2019-04-10T16:38:30.982Z,13.70
2019-04-10T16:41:00.453Z,13.20
2019-04-10T16:43:29.093Z,13.00
2019-04-10T16:45:57.542Z,13.00
2019-04-10T16:48:26.393Z,12.80
2019-04-10T16:50:56.072Z,12.70
2019-04-10T16:53:25.750Z,12.50
2019-04-10T16:55:54.331Z,12.40
2019-04-10T16:58:23.451Z,12.30
2019-04-10T17:00:51.997Z,12.20
2019-04-10T17:03:20.418Z,12.10
2019-04-10T17:05:50.000Z,12.10
2019-04-10T17:08:19.613Z,12.00
2019-04-10T17:10:48.376Z,11.90
2019-04-10T17:13:16.796Z,11.60
2019-04-10T17:15:45.452Z,11.50
2019-04-10T17:18:14.854Z,11.50
2019-04-10T17:20:44.578Z,11.40
2019-04-10T17:23:13.141Z,11.30
2019-04-10T17:25:42.441Z,11.20
2019-04-10T17:28:12.192Z,11.10
2019-04-10T17:30:42.174Z,11.00
2019-04-10T17:33:11.103Z,10.90
2019-04-10T17:35:40.021Z,10.80
2019-04-10T17:38:10.053Z,10.80
2019-04-10T17:40:47.767Z,10.70
2019-04-10T17:43:08.770Z,10.50
2019-04-10T17:45:38.419Z,10.40
2019-04-10T17:48:07.265Z,10.30
2019-04-10T17:50:35.769Z,10.20
2019-04-10T17:53:05.117Z,10.10
2019-04-10T17:55:34.272Z,10.00
2019-04-10T17:58:03.294Z,9.90
2019-04-10T18:00:33.463Z,9.70
2019-04-10T18:03:01.869Z,9.70
2019-04-10T18:05:30.910Z,9.50
2019-04-10T18:07:59.418Z,9.50
2019-04-10T18:10:41.118Z,9.40
2019-04-10T18:12:58.923Z,9.20
2019-04-10T18:15:28.261Z,9.30
2019-04-10T18:17:57.653Z,9.20
2019-04-10T18:20:26.502Z,9.10
2019-04-10T18:22:55.342Z,9.10
2019-04-10T18:25:24.009Z,8.90
2019-04-10T18:27:52.492Z,8.90
2019-04-10T18:30:21.805Z,8.80
2019-04-10T18:32:50.208Z,8.70
2019-04-10T18:35:18.652Z,8.60
2019-04-10T18:37:48.139Z,8.60
2019-04-10T18:40:17.339Z,8.70
2019-04-10T18:42:45.737Z,8.60
2019-04-10T18:45:14.361Z,8.60
2019-04-10T18:47:44.022Z,8.50
2019-04-10T18:50:12.566Z,8.40
2019-04-10T18:52:41.070Z,8.40
2019-04-10T18:55:09.546Z,8.30
2019-04-10T18:57:38.878Z,8.40
2019-04-10T19:00:19.618Z,8.30
2019-04-10T19:02:49.670Z,8.30
2019-04-10T19:05:19.713Z,8.20
2019-04-10T19:07:48.263Z,8.10
2019-04-10T19:10:17.796Z,8.20
2019-04-10T19:12:46.529Z,8.10
2019-04-10T19:15:14.995Z,8.00
2019-04-10T19:17:43.535Z,8.00
2019-04-10T19:20:13.427Z,8.00
2019-04-10T19:22:42.464Z,7.90
2019-04-10T19:25:11.212Z,7.80
2019-04-10T19:27:40.242Z,7.80
2019-04-10T19:30:19.910Z,7.70
2019-04-10T19:32:48.398Z,7.60
2019-04-10T19:35:16.992Z,7.60
2019-04-10T19:37:45.830Z,7.60
2019-04-10T19:40:15.717Z,7.50
2019-04-10T19:42:44.454Z,7.40
2019-04-10T19:45:13.206Z,7.40
2019-04-10T19:47:42.266Z,7.40
2019-04-10T19:50:11.120Z,7.40
2019-04-10T19:52:40.336Z,7.40
2019-04-10T19:55:09.303Z,7.30
2019-04-10T19:57:37.810Z,7.20
2019-04-10T20:00:10.602Z,7.10
2019-04-10T20:02:40.160Z,7.00
2019-04-10T20:05:09.530Z,7.00
2019-04-10T20:07:38.122Z,7.10
2019-04-10T20:10:06.961Z,7.00
2019-04-10T20:12:35.365Z,7.00
2019-04-10T20:15:06.439Z,6.90
2019-04-10T20:17:35.758Z,6.90
2019-04-10T20:20:06.855Z,6.80
2019-04-10T20:22:35.393Z,6.80
2019-04-10T20:25:03.940Z,6.70
2019-04-10T20:27:32.373Z,6.60
2019-04-10T20:30:01.608Z,6.50
2019-04-10T20:32:30.263Z,6.50
2019-04-10T20:34:59.995Z,6.50
2019-04-10T20:37:29.112Z,6.50
2019-04-10T20:39:58.057Z,6.40
2019-04-10T20:42:28.350Z,6.30
2019-04-10T20:44:57.026Z,6.30
2019-04-10T20:47:27.093Z,6.30
2019-04-10T20:49:56.611Z,6.10
2019-04-10T20:52:26.309Z,6.10
2019-04-10T20:54:55.299Z,5.90
2019-04-10T20:57:24.023Z,5.90
2019-04-10T20:59:53.246Z,5.80
2019-04-10T21:02:22.334Z,5.70
2019-04-10T21:04:56.566Z,5.70
2019-04-10T21:07:21.412Z,5.70
2019-04-10T21:09:50.280Z,5.60
2019-04-10T21:12:21.052Z,5.50
2019-04-10T21:14:49.166Z,5.50
2019-04-10T21:17:18.034Z,5.40
2019-04-10T21:19:46.430Z,5.30
2019-04-10T21:22:15.796Z,5.20
2019-04-10T21:24:45.473Z,5.20
2019-04-10T21:27:13.986Z,5.20
2019-04-10T21:29:44.243Z,5.20
2019-04-10T21:32:17.422Z,5.10
2019-04-10T21:34:47.400Z,5.20
2019-04-10T21:37:15.892Z,5.00
2019-04-10T21:39:45.580Z,5.00
2019-04-10T21:42:21.001Z,4.90
2019-04-10T21:44:44.948Z,4.90
2019-04-10T21:47:13.509Z,4.90
2019-04-10T21:49:42.118Z,4.70
2019-04-10T21:52:10.602Z,4.70
2019-04-10T21:54:48.793Z,4.70
2019-04-10T21:57:09.700Z,4.60
2019-04-10T21:59:38.942Z,4.60
2019-04-10T22:02:07.856Z,4.60
2019-04-10T22:04:36.446Z,4.70
2019-04-10T22:07:23.719Z,4.70
2019-04-10T22:09:54.975Z,4.70
2019-04-10T22:12:31.056Z,4.70
2019-04-10T22:14:55.992Z,4.60
2019-04-10T22:17:24.784Z,4.70
2019-04-10T22:19:53.286Z,4.70
2019-04-10T22:22:22.493Z,4.80
2019-04-10T22:24:51.079Z,4.80
2019-04-10T22:27:19.494Z,4.90
2019-04-10T22:29:47.919Z,4.90
2019-04-10T22:32:16.489Z,4.90
2019-04-10T22:34:44.965Z,4.90
2019-04-10T22:37:16.289Z,4.90
2019-04-10T22:39:43.744Z,5.00
2019-04-10T22:42:12.945Z,4.90
2019-04-10T22:44:45.213Z,4.90
2019-04-10T22:47:11.601Z,4.90
2019-04-10T22:49:40.077Z,4.90
2019-04-10T22:52:08.860Z,4.80
2019-04-10T22:54:37.455Z,4.90
2019-04-10T22:57:06.904Z,4.80
2019-04-10T22:59:35.433Z,4.80
2019-04-10T23:02:10.524Z,4.70
2019-04-10T23:04:34.928Z,4.60
2019-04-10T23:07:03.957Z,4.60
2019-04-10T23:09:32.659Z,4.50
2019-04-10T23:12:02.244Z,4.40
2019-04-10T23:14:31.146Z,4.30
2019-04-10T23:17:00.182Z,4.20
2019-04-10T23:19:28.658Z,4.10
2019-04-10T23:21:57.066Z,4.00
2019-04-10T23:24:25.532Z,4.00
2019-04-10T23:26:54.045Z,4.00
2019-04-10T23:29:22.503Z,4.00
2019-04-10T23:31:51.821Z,4.10
2019-04-10T23:34:20.908Z,4.10
2019-04-10T23:36:50.656Z,4.20
2019-04-10T23:39:19.780Z,4.20
2019-04-10T23:41:50.891Z,4.10
2019-04-10T23:44:18.585Z,4.00
2019-04-10T23:46:47.443Z,3.90
2019-04-10T23:49:17.351Z,3.80
2019-04-10T23:51:45.876Z,3.80
2019-04-10T23:54:15.215Z,3.70
2019-04-10T23:56:45.071Z,3.60
2019-04-10T23:59:14.855Z,3.50
